Airfield :
LOGIN :

Register | Disclaimer

   EN    FR    IT 

 










Legend :    VFR   Marginal VFR   IFR   Intensive IFR   Very Intensive IFR
Visi :
Ceiling :
>= 8 km
>= 3000ft
5 to 8 km
1000 to 3000 ft
1500m to 5 km
500 to 1000 ft
800 to 1500m
200 to 500 ft
< 800m
< 200 ft
Symbols :   Thunderstorms  Fog  Heavy snow  Heavy precipitations  Wind > 20 kt
SIGMETs :     Misc.  Thunderstorms  Icing  Turbulence  Mountain Waves  Volcanic Ashes






- Airport Elevation : 297 ft
- IATA code : UIP


LFRQ - Quimper Pluguffan

CURRENT METAR :
  • 181630Z AUTO 21009KT 3300 -DZ BR OVC004 10/09 Q1023 TEMPO 2000 DZRA

EXPIRED METARs :
  • 181600Z AUTO 21008KT 170V230 9000 -DZ OVC004 09/09 Q1023 TEMPO 2000 DZRA
  • 181530Z AUTO 20008KT 2700 DZ BR OVC003 09/09 Q1023 TEMPO DZRA
  • 181500Z AUTO 21009KT 2400 -DZ BR BKN004 OVC018 09/09 Q1023 TEMPO DZRA
  • 181430Z AUTO 22009KT 2300 -DZ BR OVC004 09/09 Q1024 TEMPO DZRA
  • 181400Z AUTO 21007KT 180V240 3500 -DZ BR OVC004 09/09 Q1024 TEMPO 2000 DZRA

TAF TAF LFRQ
Valid from the 18 at 12:00 until the 19 at 12:00 UTC


181100Z 1812/1912 19005KT 9999 BKN030
BECMG 1812/1814 BKN013 OVC025
TEMPO 1812/1909 4500 -RA BKN008
PROB40
TEMPO 1814/1909 2000 DZRA BKN004
BECMG 1814/1816 20012KT
BECMG 1910/1912 21015G25KT



MET'MAP, your aeronautical weather chart ! - Copyright ORBIFLY December 2007 - Disclaimer

ORBIFLY MET'MAP TEAM :

Programming & Development : Alexandra Zaïnal
Concept & original design : Baudouin d'Aumeries
Assistance for programming : Marc-Olivier Méhu
Technical & hardware support : Manuel Goepfert

Contact : metmap@orbifly.com




SOURCES & CREDITS :

   NOAA